Time;durP1;ratioP1;P1;durP2;ratioP2;P2;SDS_P1;SDS_P2;PMS_P1;PMS_P2;Temp;Humidity;BMP_temperature;BMP_pressure;BME280_temperature;BME280_humidity;BME280_pressure;Samples;Min_cycle;Max_cycle;Signal;HPM_P1;HPM_P2
2021/08/13 00:00:14;;;;;;;0.03;0.03;;;;;;;24.04;59.06;99384.59;5105519;28;20038;-84
2021/08/13 00:02:39;;;;;;;0.00;0.00;;;;;;;24.01;58.43;99382.59;5090919;28;20057;-79
2021/08/13 00:05:05;;;;;;;0.00;0.00;;;;;;;23.94;57.52;99387.91;5097289;28;20039;-83
2021/08/13 00:07:30;;;;;;;0.00;0.00;;;;;;;23.86;56.91;99384.19;5093316;28;20043;-81
2021/08/13 00:09:56;;;;;;;0.10;0.10;;;;;;;23.83;55.67;99390.38;5090275;28;20574;-88
2021/08/13 00:12:21;;;;;;;0.10;0.10;;;;;;;23.79;55.91;99376.66;5090469;28;20093;-82
2021/08/13 00:14:47;;;;;;;0.00;0.00;;;;;;;23.77;56.58;99387.13;5089716;28;20055;-85
2021/08/13 00:17:12;;;;;;;0.00;0.00;;;;;;;23.77;56.60;99383.63;5090065;28;20101;-82
2021/08/13 00:19:38;;;;;;;0.00;0.00;;;;;;;23.76;58.35;99388.25;5097687;28;20114;-80
2021/08/13 00:22:03;;;;;;;0.10;0.10;;;;;;;23.73;57.57;99380.00;5108639;28;20028;-79
2021/08/13 00:24:29;;;;;;;0.00;0.00;;;;;;;23.70;57.99;99378.00;5107893;28;20411;-78
2021/08/13 00:26:54;;;;;;;0.00;0.00;;;;;;;23.69;58.27;99373.66;5095500;28;20028;-77
2021/08/13 00:29:20;;;;;;;0.00;0.00;;;;;;;23.69;58.05;99376.41;5097662;28;20488;-78
2021/08/13 00:31:45;;;;;;;0.00;0.00;;;;;;;23.67;59.00;99374.03;5106668;28;20023;-81
2021/08/13 00:34:10;;;;;;;0.00;0.00;;;;;;;23.66;59.81;99370.50;5100043;28;20032;-83
2021/08/13 00:36:36;;;;;;;0.05;0.05;;;;;;;23.64;60.20;99382.94;5109914;28;20026;-82
2021/08/13 00:39:02;;;;;;;0.10;0.10;;;;;;;23.58;60.23;99376.16;5110096;28;20031;-82
2021/08/13 00:41:29;;;;;;;0.00;0.00;;;;;;;23.46;60.83;99366.13;5110072;28;20023;-83
2021/08/13 00:43:55;;;;;;;0.00;0.00;;;;;;;23.47;60.94;99382.19;5100148;28;20031;-83
2021/08/13 00:46:20;;;;;;;0.10;0.10;;;;;;;23.43;60.60;99373.09;5089797;28;20525;-82
2021/08/13 00:48:46;;;;;;;0.00;0.00;;;;;;;23.28;57.79;99380.16;5093611;28;20483;-83
2021/08/13 00:51:12;;;;;;;0.00;0.00;;;;;;;23.16;58.72;99381.03;5109473;28;20096;-80
2021/08/13 00:53:37;;;;;;;0.10;0.10;;;;;;;23.03;57.98;99382.25;5099448;28;20036;-79
2021/08/13 00:56:03;;;;;;;0.00;0.00;;;;;;;22.97;57.66;99380.94;5089597;28;20122;-79
2021/08/13 00:58:28;;;;;;;0.00;0.00;;;;;;;22.92;57.76;99381.97;5089962;28;20034;-79
2021/08/13 01:00:55;;;;;;;0.00;0.00;;;;;;;22.90;58.10;99383.47;5095880;28;20114;-78
2021/08/13 01:03:20;;;;;;;0.10;0.10;;;;;;;22.85;57.52;99376.34;5109830;28;20645;-79
2021/08/13 01:05:46;;;;;;;0.00;0.00;;;;;;;22.79;57.45;99392.19;5108997;28;20035;-81
2021/08/13 01:08:12;;;;;;;0.10;0.10;;;;;;;22.74;57.86;99378.81;5109543;28;20534;-78
2021/08/13 01:10:46;;;;;;;0.10;0.10;;;;;;;22.73;58.77;99373.69;5108850;28;20460;-78
2021/08/13 01:13:15;;;;;;;0.00;0.00;;;;;;;22.74;59.09;99373.38;5094672;28;20548;-77
2021/08/13 01:15:46;;;;;;;0.00;0.00;;;;;;;22.77;59.81;99369.13;5090629;28;20584;-74
2021/08/13 01:18:27;;;;;;;0.05;0.05;;;;;;;22.78;60.92;99371.50;5092736;28;20024;-81
2021/08/13 01:21:08;;;;;;;0.00;0.00;;;;;;;22.80;62.01;99371.16;5106615;28;20126;-79
2021/08/13 01:23:46;;;;;;;0.10;0.10;;;;;;;22.79;62.47;99364.91;5109348;28;20038;-77
2021/08/13 01:26:12;;;;;;;0.00;0.00;;;;;;;22.79;63.10;99372.28;5109535;28;20028;-75
2021/08/13 01:28:46;;;;;;;0.00;0.00;;;;;;;22.78;63.56;99370.72;5111032;28;20039;-77
2021/08/13 01:31:20;;;;;;;0.00;0.00;;;;;;;22.75;63.76;99369.47;5111336;28;20080;-78
2021/08/13 01:33:49;;;;;;;0.00;0.00;;;;;;;22.71;63.82;99372.09;5102282;28;20391;-80
2021/08/13 01:36:15;;;;;;;0.00;0.00;;;;;;;22.70;62.78;99380.63;5105823;28;20035;-80
2021/08/13 01:38:42;;;;;;;0.00;0.00;;;;;;;22.66;62.08;99379.75;5099465;28;20466;-80
2021/08/13 01:41:11;;;;;;;0.00;0.00;;;;;;;22.67;62.72;99382.13;5092891;28;20032;-81
2021/08/13 01:43:41;;;;;;;0.00;0.00;;;;;;;22.65;62.79;99381.69;5092658;28;20445;-81
2021/08/13 01:46:08;;;;;;;0.10;0.10;;;;;;;22.62;62.83;99382.38;5104420;28;20059;-80
2021/08/13 01:48:35;;;;;;;0.10;0.10;;;;;;;22.63;63.27;99385.91;5102812;28;20031;-79
2021/08/13 01:51:01;;;;;;;0.00;0.00;;;;;;;22.59;63.81;99380.34;5092920;28;20472;-75
2021/08/13 01:53:26;;;;;;;0.00;0.00;;;;;;;22.54;63.39;99369.72;5109642;28;20031;-75
2021/08/13 01:55:53;;;;;;;0.20;0.20;;;;;;;22.57;64.30;99381.84;5113127;28;20038;-75
2021/08/13 01:58:19;;;;;;;0.00;0.00;;;;;;;22.53;64.84;99385.28;5105373;27;20052;-78
2021/08/13 02:00:45;;;;;;;0.00;0.00;;;;;;;22.51;65.07;99386.78;5095198;28;20039;-76
2021/08/13 02:03:12;;;;;;;0.05;0.05;;;;;;;22.51;65.31;99392.22;5098724;28;20028;-77
2021/08/13 02:05:38;;;;;;;0.00;0.00;;;;;;;22.48;65.20;99393.69;5104788;28;20467;-78
2021/08/13 02:08:07;;;;;;;0.10;0.10;;;;;;;22.45;65.09;99399.84;5109659;28;20107;-78
2021/08/13 02:10:35;;;;;;;0.00;0.00;;;;;;;22.37;65.50;99398.03;5111304;28;20426;-76
2021/08/13 02:13:00;;;;;;;0.00;0.00;;;;;;;22.37;65.34;99407.00;5110119;28;20058;-79
2021/08/13 02:15:26;;;;;;;0.10;0.10;;;;;;;22.33;65.29;99421.66;5092164;28;20140;-77
2021/08/13 02:18:08;;;;;;;0.00;0.00;;;;;;;22.26;65.00;99421.47;5092371;28;20161;-81
2021/08/13 02:20:37;;;;;;;0.10;0.10;;;;;;;22.21;65.04;99425.22;5094601;28;20075;-82
2021/08/13 02:23:02;;;;;;;0.10;0.10;;;;;;;22.20;65.20;99429.06;5099314;28;20388;-82
2021/08/13 02:25:28;;;;;;;0.10;0.10;;;;;;;22.17;65.63;99427.84;5095530;28;20046;-78
2021/08/13 02:27:53;;;;;;;0.00;0.00;;;;;;;22.16;65.66;99437.13;5094304;28;20391;-77
2021/08/13 02:30:20;;;;;;;0.05;0.05;;;;;;;22.17;65.92;99438.72;5095924;28;20493;-79
2021/08/13 02:32:47;;;;;;;0.10;0.10;;;;;;;22.15;66.04;99438.28;5105207;28;20036;-78
2021/08/13 02:35:13;;;;;;;0.10;0.10;;;;;;;22.15;65.99;99442.94;5110566;28;20088;-79
2021/08/13 02:37:45;;;;;;;0.00;0.00;;;;;;;22.16;65.82;99450.75;5105234;28;20042;-84
2021/08/13 02:40:15;;;;;;;0.10;0.10;;;;;;;22.15;64.95;99457.34;5094150;28;20047;-80
2021/08/13 02:42:47;;;;;;;0.00;0.00;;;;;;;22.15;65.12;99456.56;5091849;28;20402;-81
2021/08/13 02:45:20;;;;;;;0.22;0.22;;;;;;;22.11;65.51;99453.72;5091868;28;20132;-76
2021/08/13 02:47:47;;;;;;;0.00;0.00;;;;;;;22.12;65.81;99449.06;5107143;28;20028;-77
2021/08/13 02:50:13;;;;;;;0.00;0.00;;;;;;;22.10;65.81;99456.81;5091610;28;20085;-83
2021/08/13 02:52:50;;;;;;;0.00;0.00;;;;;;;22.10;65.74;99462.25;5093745;28;20020;-78
2021/08/13 02:55:19;;;;;;;0.10;0.10;;;;;;;22.08;65.81;99470.75;5101441;28;20116;-79
2021/08/13 02:57:51;;;;;;;0.00;0.00;;;;;;;22.05;65.92;99468.72;5092572;28;20044;-79
2021/08/13 03:00:18;;;;;;;0.05;0.05;;;;;;;22.05;65.49;99466.00;5102250;28;20031;-80
2021/08/13 03:02:47;;;;;;;0.00;0.00;;;;;;;22.07;66.17;99467.22;5103224;28;20160;-79
2021/08/13 03:05:14;;;;;;;0.10;0.10;;;;;;;22.04;65.80;99464.41;5108587;28;20111;-78
2021/08/13 03:07:40;;;;;;;0.00;0.00;;;;;;;22.05;66.19;99468.72;5093008;28;20224;-78
2021/08/13 03:10:08;;;;;;;0.00;0.00;;;;;;;22.05;66.21;99471.44;5099047;28;20016;-78
2021/08/13 03:12:37;;;;;;;0.03;0.03;;;;;;;22.03;66.30;99469.06;5097665;28;20101;-79
2021/08/13 03:15:03;;;;;;;0.03;0.03;;;;;;;22.00;66.06;99467.00;5090491;28;20040;-77
2021/08/13 03:17:29;;;;;;;0.00;0.00;;;;;;;21.95;66.16;99477.34;5091195;28;20038;-77
2021/08/13 03:19:55;;;;;;;0.00;0.00;;;;;;;21.91;66.24;99482.69;5103321;28;20118;-78
2021/08/13 03:22:20;;;;;;;0.00;0.00;;;;;;;21.87;66.43;99477.13;5108799;28;20170;-79
2021/08/13 03:24:47;;;;;;;0.00;0.00;;;;;;;21.85;66.47;99473.97;5110026;28;20475;-80
2021/08/13 03:27:13;;;;;;;0.10;0.10;;;;;;;21.82;66.05;99477.34;5110899;28;20023;-77
2021/08/13 03:29:38;;;;;;;0.00;0.00;;;;;;;21.83;65.70;99480.88;5093207;28;20032;-76
2021/08/13 03:32:04;;;;;;;0.20;0.20;;;;;;;21.75;65.79;99474.41;5090881;28;20089;-74
2021/08/13 03:34:30;;;;;;;0.10;0.10;;;;;;;21.75;66.08;99477.13;5094908;28;20406;-75
2021/08/13 03:36:57;;;;;;;0.00;0.00;;;;;;;21.72;65.86;99475.88;5099248;28;20047;-77
2021/08/13 03:39:23;;;;;;;0.00;0.00;;;;;;;21.73;65.84;99482.13;5096614;28;20089;-75
2021/08/13 03:41:49;;;;;;;0.10;0.10;;;;;;;21.75;65.90;99479.84;5091587;28;20024;-74
2021/08/13 03:44:15;;;;;;;0.10;0.10;;;;;;;21.90;66.15;99478.38;5093189;28;20411;-75
2021/08/13 03:46:40;;;;;;;0.00;0.00;;;;;;;22.02;66.93;99483.00;5097651;28;20024;-75
2021/08/13 03:49:07;;;;;;;0.10;0.10;;;;;;;22.13;65.67;99481.41;5108752;28;20031;-76
2021/08/13 03:51:33;;;;;;;0.00;0.00;;;;;;;22.32;64.95;99488.97;5094266;28;20105;-76
2021/08/13 03:53:59;;;;;;;0.00;0.00;;;;;;;22.47;64.00;99492.97;5091829;28;20039;-79
2021/08/13 03:56:24;;;;;;;0.05;0.05;;;;;;;22.66;63.63;99492.31;5092872;28;20023;-79
2021/08/13 03:58:50;;;;;;;0.00;0.00;;;;;;;22.82;62.85;99480.66;5104001;28;20538;-78
2021/08/13 04:01:15;;;;;;;0.00;0.00;;;;;;;23.09;62.31;99494.63;5093777;28;20625;-79
2021/08/13 04:03:40;;;;;;;0.10;0.10;;;;;;;23.33;61.68;99482.81;5101345;28;20114;-78
2021/08/13 04:06:06;;;;;;;0.10;0.10;;;;;;;23.61;60.86;99493.63;5105279;28;20084;-78
2021/08/13 04:08:31;;;;;;;0.00;0.00;;;;;;;23.92;59.84;99486.56;5094991;27;20032;-77
2021/08/13 04:10:57;;;;;;;0.10;0.10;;;;;;;24.24;58.81;99477.50;5090521;28;20526;-81
2021/08/13 04:13:22;;;;;;;0.00;0.00;;;;;;;24.53;57.97;99489.81;5122159;27;20027;-78
2021/08/13 04:15:48;;;;;;;0.00;0.00;;;;;;;24.86;57.17;99485.03;5103460;27;20040;-80
2021/08/13 04:18:13;;;;;;;0.00;0.00;;;;;;;25.21;55.90;99487.63;5099853;28;20394;-79
2021/08/13 04:20:39;;;;;;;0.00;0.00;;;;;;;25.51;55.26;99483.47;5107679;28;20497;-77
2021/08/13 04:23:05;;;;;;;0.00;0.00;;;;;;;25.86;54.27;99496.91;5101095;28;20114;-79
2021/08/13 04:25:30;;;;;;;0.00;0.00;;;;;;;26.19;53.36;99498.19;5117140;28;20478;-78
2021/08/13 04:27:56;;;;;;;0.00;0.00;;;;;;;26.49;52.33;99502.13;5110867;28;20020;-89
2021/08/13 04:30:22;;;;;;;0.00;0.00;;;;;;;26.82;51.41;99504.09;5112511;28;20534;-88
2021/08/13 04:32:48;;;;;;;0.00;0.00;;;;;;;27.12;50.10;99505.19;5099025;28;20084;-81
2021/08/13 04:35:13;;;;;;;0.00;0.00;;;;;;;27.44;49.17;99507.47;5098559;28;20035;-87
2021/08/13 04:37:39;;;;;;;0.00;0.00;;;;;;;27.74;48.75;99510.06;5091133;28;20036;-81
2021/08/13 04:40:05;;;;;;;0.00;0.00;;;;;;;28.08;47.75;99500.91;5092189;28;20412;-82
2021/08/13 04:42:31;;;;;;;0.00;0.00;;;;;;;28.39;47.07;99507.75;5110185;28;20043;-82
2021/08/13 04:44:56;;;;;;;0.00;0.00;;;;;;;28.72;46.69;99500.44;5110091;28;20050;-82
2021/08/13 04:47:21;;;;;;;0.00;0.00;;;;;;;29.04;46.09;99505.25;5110231;28;20024;-82
2021/08/13 04:49:47;;;;;;;0.00;0.00;;;;;;;29.37;45.13;99500.59;5109860;28;20406;-82
2021/08/13 04:52:13;;;;;;;0.10;0.10;;;;;;;29.69;44.70;99496.25;5110128;28;20028;-81
2021/08/13 04:54:39;;;;;;;0.00;0.00;;;;;;;29.97;44.01;99498.19;5109953;28;20024;-82
2021/08/13 04:57:04;;;;;;;0.00;0.00;;;;;;;30.23;43.33;99507.19;5109852;28;20034;-83
2021/08/13 04:59:30;;;;;;;0.00;0.00;;;;;;;30.48;42.85;99507.09;5110094;28;20454;-83
2021/08/13 05:01:55;;;;;;;0.00;0.00;;;;;;;30.70;42.67;99509.00;5109839;28;20024;-81
2021/08/13 05:04:20;;;;;;;0.00;0.00;;;;;;;30.93;42.11;99511.25;5109917;28;20031;-82
2021/08/13 05:06:46;;;;;;;0.00;0.00;;;;;;;31.16;41.87;99519.03;5109728;28;20023;-83
2021/08/13 05:09:11;;;;;;;0.00;0.00;;;;;;;31.37;41.37;99520.88;5109743;28;20023;-81
2021/08/13 05:11:37;;;;;;;0.00;0.00;;;;;;;31.60;41.11;99523.06;5109843;28;20088;-81
2021/08/13 05:14:04;;;;;;;0.00;0.00;;;;;;;31.82;40.87;99524.84;5110967;28;20031;-83
2021/08/13 05:16:30;;;;;;;0.00;0.00;;;;;;;31.91;40.33;99520.41;5113579;28;20016;-82
2021/08/13 05:18:56;;;;;;;0.00;0.00;;;;;;;32.06;40.32;99521.03;5114770;27;20081;-82
2021/08/13 05:21:21;;;;;;;0.00;0.00;;;;;;;32.20;40.07;99524.84;5113537;28;20020;-83
2021/08/13 05:23:47;;;;;;;0.00;0.00;;;;;;;32.30;40.03;99526.75;5113450;28;20399;-82
2021/08/13 05:26:13;;;;;;;0.00;0.00;;;;;;;32.48;39.76;99528.53;5113318;28;20483;-83
2021/08/13 05:28:38;;;;;;;0.00;0.00;;;;;;;32.61;39.31;99526.78;5113457;28;20075;-82
2021/08/13 05:31:03;;;;;;;0.00;0.00;;;;;;;32.78;39.01;99536.09;5113151;28;20096;-82
2021/08/13 05:33:29;;;;;;;0.00;0.00;;;;;;;32.91;38.83;99536.31;5113352;28;20027;-82
2021/08/13 05:35:54;;;;;;;0.00;0.00;;;;;;;33.08;38.72;99536.47;5113051;28;20027;-82
2021/08/13 05:38:20;;;;;;;0.22;0.20;;;;;;;33.20;38.36;99538.66;5112975;28;20038;-82
2021/08/13 05:40:45;;;;;;;0.00;0.00;;;;;;;33.31;38.38;99533.78;5113269;28;20053;-82
2021/08/13 05:43:11;;;;;;;0.00;0.00;;;;;;;33.40;38.20;99530.47;5113032;28;20042;-81
2021/08/13 05:45:36;;;;;;;0.10;0.10;;;;;;;33.55;37.76;99542.09;5113137;28;20020;-81
2021/08/13 05:48:02;;;;;;;0.00;0.00;;;;;;;33.68;37.92;99543.06;5112915;28;20491;-81
2021/08/13 05:50:27;;;;;;;0.10;0.10;;;;;;;33.79;37.78;99545.66;5112762;28;20027;-82
2021/08/13 05:52:53;;;;;;;0.03;0.03;;;;;;;33.91;37.28;99552.63;5112703;28;20034;-83
2021/08/13 05:55:18;;;;;;;0.00;0.00;;;;;;;33.95;37.77;99549.78;5112838;28;20440;-81
2021/08/13 05:57:45;;;;;;;0.00;0.00;;;;;;;34.03;37.39;99558.75;5112966;28;20024;-82
2021/08/13 06:00:11;;;;;;;0.00;0.00;;;;;;;34.08;37.06;99556.28;5112759;28;20031;-82
2021/08/13 06:02:36;;;;;;;0.00;0.00;;;;;;;34.17;36.94;99555.72;5112856;28;20051;-82
2021/08/13 06:05:02;;;;;;;0.10;0.10;;;;;;;34.25;36.67;99553.59;5113022;28;20489;-82
2021/08/13 06:07:28;;;;;;;0.00;0.00;;;;;;;34.35;36.48;99551.81;5112752;28;20023;-82
2021/08/13 06:09:53;;;;;;;0.10;0.10;;;;;;;34.40;36.09;99548.56;5112590;28;20479;-82
2021/08/13 06:12:19;;;;;;;0.00;0.00;;;;;;;34.35;36.06;99549.81;5112711;28;20478;-83
2021/08/13 06:14:44;;;;;;;0.00;0.00;;;;;;;34.21;36.54;99552.88;5112479;28;20089;-82
2021/08/13 06:17:10;;;;;;;0.10;0.10;;;;;;;33.95;37.23;99556.09;5112597;28;20027;-83
2021/08/13 06:19:36;;;;;;;0.00;0.00;;;;;;;33.56;36.78;99543.69;5112519;28;20024;-81
2021/08/13 06:22:03;;;;;;;0.30;0.20;;;;;;;33.32;37.38;99553.94;5112291;28;20028;-84
2021/08/13 06:24:28;;;;;;;0.20;0.20;;;;;;;32.82;38.65;99552.66;5112017;28;20031;-83
2021/08/13 06:26:54;;;;;;;0.08;0.08;;;;;;;32.50;38.89;99564.88;5111870;28;20031;-83
2021/08/13 06:29:22;;;;;;;0.20;0.20;;;;;;;32.10;39.50;99565.28;5112538;28;20027;-83
2021/08/13 06:31:48;;;;;;;0.10;0.10;;;;;;;31.80;39.95;99565.94;5112417;28;20032;-85
2021/08/13 06:34:18;;;;;;;0.30;0.30;;;;;;;31.50;40.65;99561.81;5112103;28;20035;-85
2021/08/13 06:36:44;;;;;;;0.00;0.00;;;;;;;31.17;42.01;99548.22;5112198;28;20024;-83
2021/08/13 06:39:09;;;;;;;0.10;0.10;;;;;;;31.00;42.51;99555.41;5112151;28;20024;-83
2021/08/13 06:41:35;;;;;;;0.40;0.40;;;;;;;30.82;42.48;99549.97;5112147;28;20107;-83
2021/08/13 06:44:00;;;;;;;0.00;0.00;;;;;;;30.68;42.94;99550.81;5111938;28;20451;-83
2021/08/13 06:46:27;;;;;;;0.03;0.03;;;;;;;30.57;43.93;99552.84;5111969;28;20028;-83
2021/08/13 06:48:52;;;;;;;0.30;0.30;;;;;;;30.42;44.53;99544.59;5111648;28;20144;-83
2021/08/13 06:51:19;;;;;;;0.00;0.00;;;;;;;30.24;44.39;99546.63;5113654;28;20187;-83
2021/08/13 06:53:45;;;;;;;0.10;0.10;;;;;;;30.07;44.70;99551.75;5111906;28;20028;-82
2021/08/13 06:56:11;;;;;;;1.30;1.25;;;;;;;30.09;45.18;99554.09;5111765;28;20554;-84
2021/08/13 06:58:36;;;;;;;0.10;0.10;;;;;;;30.03;44.47;99559.25;5113164;28;20095;-84
2021/08/13 07:01:02;;;;;;;0.25;0.25;;;;;;;29.96;44.63;99557.28;5111684;28;20467;-83
2021/08/13 07:03:27;;;;;;;0.00;0.00;;;;;;;30.00;45.16;99562.78;5111897;28;20024;-83
2021/08/13 07:05:53;;;;;;;0.55;0.55;;;;;;;30.00;45.03;99571.06;5111581;28;20040;-83
2021/08/13 07:08:18;;;;;;;0.00;0.00;;;;;;;30.05;45.32;99567.13;5111586;28;20024;-85
2021/08/13 07:10:44;;;;;;;0.00;0.00;;;;;;;29.98;44.99;99565.94;5111721;28;20056;-84
2021/08/13 07:13:09;;;;;;;0.20;0.20;;;;;;;29.88;45.18;99566.72;5111419;28;20030;-84
2021/08/13 07:15:34;;;;;;;2.38;0.90;;;;;;;29.79;45.44;99569.88;5111416;28;20449;-84
2021/08/13 07:18:00;;;;;;;0.03;0.03;;;;;;;29.62;46.04;99562.41;5110948;28;20490;-83
2021/08/13 07:20:26;;;;;;;0.17;0.17;;;;;;;29.50;47.01;99564.38;5111282;28;20475;-84
2021/08/13 07:22:52;;;;;;;0.85;0.85;;;;;;;29.36;47.23;99564.34;5110839;28;20110;-84
2021/08/13 07:25:17;;;;;;;0.90;0.63;;;;;;;29.22;47.13;99568.63;5110869;28;20073;-84
2021/08/13 07:27:43;;;;;;;0.10;0.10;;;;;;;29.07;46.96;99561.50;5111059;28;20024;-84
2021/08/13 07:30:09;;;;;;;0.15;0.15;;;;;;;29.08;47.93;99566.59;5110808;28;20063;-85
2021/08/13 07:32:34;;;;;;;0.03;0.03;;;;;;;28.99;46.99;99568.16;5110616;28;20027;-85
2021/08/13 07:35:00;;;;;;;0.10;0.10;;;;;;;28.92;47.65;99566.16;5110691;28;20104;-83
2021/08/13 07:37:25;;;;;;;0.17;0.17;;;;;;;28.85;47.43;99564.16;5110255;28;20487;-83
2021/08/13 07:39:50;;;;;;;0.20;0.20;;;;;;;28.77;46.61;99565.31;5111097;28;20027;-86
2021/08/13 07:42:17;;;;;;;0.93;0.40;;;;;;;28.69;45.67;99560.97;5110711;28;20023;-86
2021/08/13 07:44:43;;;;;;;0.20;0.20;;;;;;;28.66;46.21;99558.94;5110877;28;20027;-82
2021/08/13 07:47:08;;;;;;;0.20;0.20;;;;;;;28.66;46.42;99558.94;5110583;28;20114;-85
2021/08/13 07:49:34;;;;;;;0.00;0.00;;;;;;;28.60;45.99;99556.56;5110686;28;20263;-84
2021/08/13 07:51:59;;;;;;;0.15;0.15;;;;;;;28.65;46.37;99558.16;5110452;28;20551;-84
2021/08/13 07:54:25;;;;;;;0.03;0.03;;;;;;;28.76;46.47;99558.25;5110643;28;20020;-84
2021/08/13 07:56:50;;;;;;;0.17;0.17;;;;;;;28.78;47.27;99555.88;5110595;28;20028;-83
2021/08/13 07:59:16;;;;;;;0.22;0.22;;;;;;;28.80;46.34;99563.78;5110272;28;20450;-84
2021/08/13 08:01:41;;;;;;;0.00;0.00;;;;;;;28.82;45.63;99566.91;5110602;28;20024;-82
2021/08/13 08:04:06;;;;;;;0.45;0.45;;;;;;;28.94;46.26;99563.78;5110264;28;20032;-82
2021/08/13 08:06:33;;;;;;;0.25;0.25;;;;;;;29.03;46.55;99569.72;5110541;28;20042;-82
2021/08/13 08:08:58;;;;;;;0.00;0.00;;;;;;;29.08;44.60;99561.09;5110202;28;20031;-82
2021/08/13 08:11:23;;;;;;;0.05;0.05;;;;;;;29.19;43.74;99569.38;5110301;28;20028;-82
2021/08/13 08:13:49;;;;;;;0.15;0.15;;;;;;;29.18;43.49;99561.53;5110290;28;20444;-84
2021/08/13 08:16:15;;;;;;;0.35;0.35;;;;;;;29.19;43.32;99569.38;5109838;28;20560;-82
2021/08/13 08:18:40;;;;;;;0.13;0.13;;;;;;;29.28;42.95;99560.75;5110315;28;20027;-81
2021/08/13 08:21:06;;;;;;;0.10;0.10;;;;;;;29.41;41.64;99557.63;5110057;28;20072;-81
2021/08/13 08:23:31;;;;;;;0.28;0.28;;;;;;;29.52;40.43;99561.22;5110176;28;20475;-81
2021/08/13 08:25:57;;;;;;;0.00;0.00;;;;;;;29.57;41.86;99558.06;5110273;28;20136;-82
2021/08/13 08:28:22;;;;;;;0.20;0.20;;;;;;;29.64;41.57;99562.78;5110113;28;20087;-82
2021/08/13 08:30:48;;;;;;;0.00;0.00;;;;;;;29.71;41.13;99549.78;5110225;28;20043;-82
2021/08/13 08:33:13;;;;;;;0.00;0.00;;;;;;;29.69;38.32;99554.91;5110570;28;20027;-85
2021/08/13 08:35:39;;;;;;;0.13;0.13;;;;;;;29.68;40.25;99563.56;5110016;28;20023;-83
2021/08/13 08:38:04;;;;;;;0.10;0.10;;;;;;;29.66;39.99;99558.47;5109927;28;20107;-81
2021/08/13 08:40:32;;;;;;;0.10;0.10;;;;;;;29.70;40.34;99562.00;5110062;28;20459;-83
2021/08/13 08:42:59;;;;;;;0.30;0.15;;;;;;;29.62;39.59;99565.16;5110119;28;20020;-84
2021/08/13 08:45:25;;;;;;;;;;;;;;;29.50;39.13;99560.81;5110491;28;20047;-83
2021/08/13 08:47:53;;;;;;;0.45;0.20;;;;;;;29.46;39.68;99563.56;5111347;28;19922;-82
2021/08/13 08:50:21;;;;;;;0.90;0.10;;;;;;;29.47;40.04;99556.09;5113871;28;20070;-81
2021/08/13 08:52:47;;;;;;;0.10;0.10;;;;;;;29.53;39.25;99557.28;5114150;28;20089;-82
2021/08/13 08:55:14;;;;;;;0.05;0.05;;;;;;;29.41;36.87;99563.94;5113853;28;20102;-85
2021/08/13 08:57:41;;;;;;;0.10;0.10;;;;;;;29.31;37.39;99548.97;5114078;28;20059;-84
2021/08/13 09:00:08;;;;;;;0.00;0.00;;;;;;;29.29;37.94;99554.06;5113470;28;20122;-82
2021/08/13 09:02:34;;;;;;;0.22;0.20;;;;;;;29.31;37.20;99548.19;5113935;28;20430;-84
2021/08/13 09:05:00;;;;;;;0.00;0.00;;;;;;;29.27;37.53;99545.38;5113671;28;20020;-83
2021/08/13 09:07:26;;;;;;;0.20;0.20;;;;;;;29.27;36.97;99545.38;5113811;28;20497;-83
2021/08/13 09:09:52;;;;;;;0.00;0.00;;;;;;;29.31;34.37;99548.97;5114315;28;20371;-82
2021/08/13 09:12:18;;;;;;;0.10;0.10;;;;;;;29.41;35.31;99552.13;5113556;28;20247;-82
2021/08/13 09:14:44;;;;;;;0.00;0.00;;;;;;;29.49;34.16;99548.19;5113402;28;20096;-82
2021/08/13 09:17:09;;;;;;;0.10;0.10;;;;;;;29.63;35.98;99547.44;5113306;28;20513;-81
2021/08/13 09:19:39;;;;;;;0.00;0.00;;;;;;;29.77;36.42;99544.69;5113587;28;20035;-82
2021/08/13 09:22:13;;;;;;;0.00;0.00;;;;;;;29.87;37.07;99543.88;5113318;28;20498;-82
2021/08/13 09:24:41;;;;;;;0.22;0.22;;;;;;;29.96;36.48;99559.25;5113482;28;20028;-84
2021/08/13 09:27:21;;;;;;;0.00;0.00;;;;;;;29.91;34.01;99548.63;5113352;28;20032;-83
2021/08/13 09:30:12;;;;;;;0.00;0.00;;;;;;;30.02;34.31;99552.16;5113384;28;20035;-83
2021/08/13 09:32:39;;;;;;;0.20;0.20;;;;;;;30.02;33.94;99549.41;5113411;28;20239;-82
2021/08/13 09:35:05;;;;;;;0.00;0.00;;;;;;;30.05;34.68;99545.84;5113104;28;20111;-82
2021/08/13 09:37:32;;;;;;;0.13;0.13;;;;;;;30.12;34.55;99556.09;5113297;28;20028;-82
2021/08/13 09:39:58;;;;;;;0.10;0.03;;;;;;;30.12;34.83;99542.28;5113375;28;20118;-82
2021/08/13 09:42:37;;;;;;;0.20;0.20;;;;;;;30.18;33.47;99548.97;5112961;28;20059;-81
2021/08/13 09:45:08;;;;;;;0.00;0.00;;;;;;;30.27;34.12;99548.56;5112567;28;20055;-81
2021/08/13 09:47:42;;;;;;;1.85;0.38;;;;;;;30.38;35.76;99541.03;5113130;28;20051;-82
2021/08/13 09:50:10;;;;;;;0.10;0.10;;;;;;;30.49;35.96;99541.84;5112777;28;20050;-81
2021/08/13 09:52:35;;;;;;;0.30;0.30;;;;;;;30.63;35.80;99540.97;5112944;28;20045;-81
2021/08/13 09:55:15;;;;;;;0.00;0.00;;;;;;;30.73;34.90;99536.59;5112915;28;20031;-81
2021/08/13 09:57:48;;;;;;;0.00;0.00;;;;;;;30.80;34.63;99542.09;5112960;28;20027;-83
2021/08/13 10:00:17;;;;;;;0.10;0.10;;;;;;;30.82;34.20;99533.41;5111676;28;20486;-82
2021/08/13 10:02:45;;;;;;;0.13;0.13;;;;;;;30.86;33.45;99536.94;5112768;28;20028;-82
2021/08/13 10:05:22;;;;;;;0.10;0.10;;;;;;;30.87;33.95;99537.72;5112568;28;20016;-81
2021/08/13 10:07:49;;;;;;;1.55;0.30;;;;;;;30.85;34.18;99529.03;5112877;28;20024;-81
2021/08/13 10:10:15;;;;;;;0.17;0.17;;;;;;;30.87;33.78;99535.75;5112456;28;20020;-82
2021/08/13 10:12:45;;;;;;;0.10;0.10;;;;;;;30.88;34.08;99526.25;5112670;28;20030;-81
2021/08/13 10:15:26;;;;;;;0.10;0.10;;;;;;;30.89;34.49;99533.34;5111865;28;20511;-81
2021/08/13 10:17:53;;;;;;;1.85;0.17;;;;;;;30.93;33.40;99531.38;5112300;28;20477;-82
2021/08/13 10:20:19;;;;;;;0.13;0.13;;;;;;;30.88;34.00;99531.00;5111994;28;20043;-81
2021/08/13 10:22:44;;;;;;;0.00;0.00;;;;;;;30.85;33.90;99523.50;5112315;28;20475;-80
2021/08/13 10:25:11;;;;;;;0.20;0.20;;;;;;;30.88;34.00;99520.72;5112137;28;20032;-81
2021/08/13 10:27:37;;;;;;;0.20;0.20;;;;;;;30.89;34.37;99524.31;5111808;28;20031;-81
2021/08/13 10:30:02;;;;;;;0.00;0.00;;;;;;;30.94;34.43;99526.63;5112215;28;20028;-81
2021/08/13 10:32:29;;;;;;;0.00;0.00;;;;;;;31.00;34.17;99530.53;5111963;28;20573;-80
2021/08/13 10:34:55;;;;;;;0.03;0.03;;;;;;;31.02;34.43;99530.94;5112167;28;20401;-82
2021/08/13 10:37:24;;;;;;;0.00;0.00;;;;;;;31.08;35.37;99521.06;5112037;28;20064;-81
2021/08/13 10:39:52;;;;;;;0.10;0.10;;;;;;;31.13;34.29;99512.34;5112140;28;20384;-82
2021/08/13 10:42:21;;;;;;;0.00;0.00;;;;;;;31.20;34.99;99530.06;5111808;28;20475;-81
2021/08/13 10:44:56;;;;;;;0.20;0.20;;;;;;;31.27;34.16;99516.19;5112140;28;20024;-80
2021/08/13 10:47:28;;;;;;;0.10;0.10;;;;;;;31.32;33.94;99517.75;5111502;28;20073;-81
2021/08/13 10:49:56;;;;;;;0.10;0.10;;;;;;;31.29;33.15;99520.13;5111965;28;20539;-84
2021/08/13 10:52:38;;;;;;;0.00;0.00;;;;;;;31.22;32.99;99520.16;5111727;28;20070;-80
2021/08/13 10:55:05;;;;;;;0.00;0.00;;;;;;;31.22;32.99;99511.88;5111669;28;20126;-81
2021/08/13 10:58:00;;;;;;;0.00;0.00;;;;;;;31.21;32.42;99504.78;5111241;28;20031;-83
2021/08/13 11:00:49;;;;;;;1.58;0.38;;;;;;;31.19;33.38;99506.38;5084160;28;20031;-81
2021/08/13 11:03:17;;;;;;;0.10;0.10;;;;;;;31.20;32.11;99506.00;5111350;28;20027;-82
2021/08/13 11:05:50;;;;;;;0.00;0.00;;;;;;;31.26;32.03;99511.84;5111556;28;20015;-81
2021/08/13 11:08:15;;;;;;;0.10;0.10;;;;;;;31.24;31.14;99509.50;5111334;28;20081;-83
2021/08/13 11:10:41;;;;;;;0.00;0.00;;;;;;;31.14;30.42;99494.56;5111514;28;20024;-82
2021/08/13 11:13:19;;;;;;;0.30;0.30;;;;;;;31.10;30.48;99496.59;5111525;28;20049;-83
2021/08/13 11:15:48;;;;;;;0.10;0.10;;;;;;;31.10;31.26;99504.06;5110900;28;20047;-82
2021/08/13 11:18:38;;;;;;;0.52;0.52;;;;;;;31.07;30.68;99496.59;5111159;28;20038;-83
2021/08/13 11:21:09;;;;;;;0.10;0.10;;;;;;;31.04;30.34;99489.91;5111195;28;20019;-83
2021/08/13 11:23:58;;;;;;;0.08;0.08;;;;;;;30.98;30.85;99484.00;5111304;28;20056;-82
2021/08/13 11:26:55;;;;;;;0.10;0.10;;;;;;;30.95;31.38;99495.06;5111001;28;20466;-83
2021/08/13 11:29:27;;;;;;;0.17;0.17;;;;;;;30.85;30.88;99502.22;5110956;28;20024;-84
2021/08/13 11:31:53;;;;;;;0.00;0.00;;;;;;;30.76;30.76;99483.34;5110999;28;20447;-85
2021/08/13 11:34:50;;;;;;;0.47;0.32;;;;;;;30.71;31.12;99471.94;5110819;28;20551;-85